sensor_id;sensor_type;location;lat;lon;timestamp;P1;durP1;ratioP1;P2;durP2;ratioP2
42246;SDS011;27913;42.722;23.268;2022-12-29T00:01:53;21.73;;;9.32;;
42246;SDS011;27913;42.722;23.268;2022-12-29T00:04:20;16.77;;;8.15;;
42246;SDS011;27913;42.722;23.268;2022-12-29T00:06:46;24.35;;;8.27;;
42246;SDS011;27913;42.722;23.268;2022-12-29T00:09:14;14.80;;;7.20;;
42246;SDS011;27913;42.722;23.268;2022-12-29T00:11:41;16.55;;;7.68;;
42246;SDS011;27913;42.722;23.268;2022-12-29T00:14:08;12.95;;;6.63;;
42246;SDS011;27913;42.722;23.268;2022-12-29T00:16:53;15.73;;;6.70;;
42246;SDS011;27913;42.722;23.268;2022-12-29T00:19:19;17.30;;;6.97;;
42246;SDS011;27913;42.722;23.268;2022-12-29T00:22:04;13.98;;;6.88;;
42246;SDS011;27913;42.722;23.268;2022-12-29T00:24:48;12.85;;;5.85;;
42246;SDS011;27913;42.722;23.268;2022-12-29T00:27:32;16.77;;;6.93;;
42246;SDS011;27913;42.722;23.268;2022-12-29T00:30:20;12.18;;;6.22;;
42246;SDS011;27913;42.722;23.268;2022-12-29T00:33:12;11.10;;;5.82;;
42246;SDS011;27913;42.722;23.268;2022-12-29T00:36:01;16.05;;;6.60;;
42246;SDS011;27913;42.722;23.268;2022-12-29T00:38:31;13.45;;;7.03;;
42246;SDS011;27913;42.722;23.268;2022-12-29T00:41:17;13.27;;;5.85;;
42246;SDS011;27913;42.722;23.268;2022-12-29T00:44:01;14.60;;;6.97;;
42246;SDS011;27913;42.722;23.268;2022-12-29T00:46:38;15.07;;;7.20;;
42246;SDS011;27913;42.722;23.268;2022-12-29T00:49:06;13.63;;;7.00;;
42246;SDS011;27913;42.722;23.268;2022-12-29T00:51:51;16.23;;;6.80;;
42246;SDS011;27913;42.722;23.268;2022-12-29T00:54:17;14.40;;;6.97;;
42246;SDS011;27913;42.722;23.268;2022-12-29T00:56:43;15.27;;;7.40;;
42246;SDS011;27913;42.722;23.268;2022-12-29T00:59:11;15.13;;;7.70;;
42246;SDS011;27913;42.722;23.268;2022-12-29T01:04:12;18.77;;;8.13;;
42246;SDS011;27913;42.722;23.268;2022-12-29T01:06:39;17.45;;;8.05;;
42246;SDS011;27913;42.722;23.268;2022-12-29T01:09:06;19.48;;;8.43;;
42246;SDS011;27913;42.722;23.268;2022-12-29T01:11:51;18.48;;;7.93;;
42246;SDS011;27913;42.722;23.268;2022-12-29T01:14:17;17.40;;;9.02;;
42246;SDS011;27913;42.722;23.268;2022-12-29T01:16:43;18.23;;;9.10;;
42246;SDS011;27913;42.722;23.268;2022-12-29T01:19:09;21.67;;;9.57;;
42246;SDS011;27913;42.722;23.268;2022-12-29T01:21:35;21.67;;;10.00;;
42246;SDS011;27913;42.722;23.268;2022-12-29T01:24:03;20.25;;;8.90;;
42246;SDS011;27913;42.722;23.268;2022-12-29T01:26:28;22.75;;;9.40;;
42246;SDS011;27913;42.722;23.268;2022-12-29T01:28:54;22.17;;;10.48;;
42246;SDS011;27913;42.722;23.268;2022-12-29T01:31:19;20.20;;;9.20;;
42246;SDS011;27913;42.722;23.268;2022-12-29T01:33:45;22.50;;;9.52;;
42246;SDS011;27913;42.722;23.268;2022-12-29T01:36:12;17.42;;;7.88;;
42246;SDS011;27913;42.722;23.268;2022-12-29T01:38:40;22.50;;;8.93;;
42246;SDS011;27913;42.722;23.268;2022-12-29T01:41:07;17.52;;;9.20;;
42246;SDS011;27913;42.722;23.268;2022-12-29T01:43:41;18.58;;;9.25;;
42246;SDS011;27913;42.722;23.268;2022-12-29T01:46:30;15.95;;;8.25;;
42246;SDS011;27913;42.722;23.268;2022-12-29T01:51:40;20.15;;;8.38;;
42246;SDS011;27913;42.722;23.268;2022-12-29T01:54:15;16.65;;;8.73;;
42246;SDS011;27913;42.722;23.268;2022-12-29T01:56:48;21.80;;;9.15;;
42246;SDS011;27913;42.722;23.268;2022-12-29T01:59:18;22.33;;;8.70;;
42246;SDS011;27913;42.722;23.268;2022-12-29T02:04:13;16.80;;;7.78;;
42246;SDS011;27913;42.722;23.268;2022-12-29T02:06:41;17.05;;;7.50;;
42246;SDS011;27913;42.722;23.268;2022-12-29T02:09:13;12.93;;;7.28;;
42246;SDS011;27913;42.722;23.268;2022-12-29T02:11:39;14.20;;;7.10;;
42246;SDS011;27913;42.722;23.268;2022-12-29T02:14:08;17.00;;;6.88;;
42246;SDS011;27913;42.722;23.268;2022-12-29T02:25:49;14.73;;;7.45;;
42246;SDS011;27913;42.722;23.268;2022-12-29T02:39:38;16.98;;;7.60;;
42246;SDS011;27913;42.722;23.268;2022-12-29T02:47:36;18.42;;;8.65;;
42246;SDS011;27913;42.722;23.268;2022-12-29T02:50:08;17.88;;;8.27;;
42246;SDS011;27913;42.722;23.268;2022-12-29T02:52:48;17.58;;;8.82;;
42246;SDS011;27913;42.722;23.268;2022-12-29T02:55:17;19.42;;;8.48;;
42246;SDS011;27913;42.722;23.268;2022-12-29T02:57:43;19.38;;;7.75;;
42246;SDS011;27913;42.722;23.268;2022-12-29T03:00:12;18.45;;;7.43;;
42246;SDS011;27913;42.722;23.268;2022-12-29T03:08:19;15.18;;;7.05;;
42246;SDS011;27913;42.722;23.268;2022-12-29T03:11:12;14.13;;;6.97;;
42246;SDS011;27913;42.722;23.268;2022-12-29T03:14:00;15.50;;;7.20;;
42246;SDS011;27913;42.722;23.268;2022-12-29T03:17:03;15.55;;;7.85;;
42246;SDS011;27913;42.722;23.268;2022-12-29T03:19:36;16.17;;;7.30;;
42246;SDS011;27913;42.722;23.268;2022-12-29T03:22:14;19.77;;;8.25;;
42246;SDS011;27913;42.722;23.268;2022-12-29T03:25:08;12.98;;;6.40;;
42246;SDS011;27913;42.722;23.268;2022-12-29T03:27:36;18.02;;;7.82;;
42246;SDS011;27913;42.722;23.268;2022-12-29T03:30:09;15.82;;;7.78;;
42246;SDS011;27913;42.722;23.268;2022-12-29T03:32:36;15.07;;;7.28;;
42246;SDS011;27913;42.722;23.268;2022-12-29T03:35:08;18.20;;;7.35;;
42246;SDS011;27913;42.722;23.268;2022-12-29T03:37:59;14.55;;;7.50;;
42246;SDS011;27913;42.722;23.268;2022-12-29T03:40:33;19.05;;;8.05;;
42246;SDS011;27913;42.722;23.268;2022-12-29T03:42:59;15.55;;;7.68;;
42246;SDS011;27913;42.722;23.268;2022-12-29T03:45:27;18.92;;;7.50;;
42246;SDS011;27913;42.722;23.268;2022-12-29T03:47:53;25.42;;;10.73;;
42246;SDS011;27913;42.722;23.268;2022-12-29T03:50:18;22.35;;;10.15;;
42246;SDS011;27913;42.722;23.268;2022-12-29T03:52:44;25.40;;;10.07;;
42246;SDS011;27913;42.722;23.268;2022-12-29T03:55:10;18.35;;;8.10;;
42246;SDS011;27913;42.722;23.268;2022-12-29T03:57:35;15.27;;;7.45;;
42246;SDS011;27913;42.722;23.268;2022-12-29T04:00:02;14.07;;;7.10;;
42246;SDS011;27913;42.722;23.268;2022-12-29T04:02:29;14.88;;;7.00;;
42246;SDS011;27913;42.722;23.268;2022-12-29T04:04:55;14.30;;;7.18;;
42246;SDS011;27913;42.722;23.268;2022-12-29T04:07:20;15.50;;;7.05;;
42246;SDS011;27913;42.722;23.268;2022-12-29T04:09:46;16.30;;;7.55;;
42246;SDS011;27913;42.722;23.268;2022-12-29T04:12:12;13.50;;;7.38;;
42246;SDS011;27913;42.722;23.268;2022-12-29T04:14:39;13.40;;;7.05;;
42246;SDS011;27913;42.722;23.268;2022-12-29T04:17:05;17.23;;;7.65;;
42246;SDS011;27913;42.722;23.268;2022-12-29T04:19:30;13.15;;;6.65;;
42246;SDS011;27913;42.722;23.268;2022-12-29T04:21:56;14.38;;;6.97;;
42246;SDS011;27913;42.722;23.268;2022-12-29T04:24:22;18.63;;;7.38;;
42246;SDS011;27913;42.722;23.268;2022-12-29T04:26:47;16.15;;;7.25;;
42246;SDS011;27913;42.722;23.268;2022-12-29T04:29:13;16.70;;;7.35;;
42246;SDS011;27913;42.722;23.268;2022-12-29T04:31:38;15.95;;;7.25;;
42246;SDS011;27913;42.722;23.268;2022-12-29T04:34:04;19.38;;;7.95;;
42246;SDS011;27913;42.722;23.268;2022-12-29T04:36:29;16.77;;;7.53;;
42246;SDS011;27913;42.722;23.268;2022-12-29T04:38:55;16.75;;;7.00;;
42246;SDS011;27913;42.722;23.268;2022-12-29T04:41:20;15.77;;;7.53;;
42246;SDS011;27913;42.722;23.268;2022-12-29T04:43:46;21.70;;;9.38;;
42246;SDS011;27913;42.722;23.268;2022-12-29T04:46:11;24.58;;;10.00;;
42246;SDS011;27913;42.722;23.268;2022-12-29T04:48:37;22.52;;;10.27;;
42246;SDS011;27913;42.722;23.268;2022-12-29T04:51:02;16.98;;;9.10;;
42246;SDS011;27913;42.722;23.268;2022-12-29T04:53:28;22.48;;;10.48;;
42246;SDS011;27913;42.722;23.268;2022-12-29T04:55:55;16.70;;;9.07;;
42246;SDS011;27913;42.722;23.268;2022-12-29T04:58:21;21.58;;;10.25;;
42246;SDS011;27913;42.722;23.268;2022-12-29T05:00:46;19.60;;;9.68;;
42246;SDS011;27913;42.722;23.268;2022-12-29T05:03:12;17.75;;;9.13;;
42246;SDS011;27913;42.722;23.268;2022-12-29T05:05:37;17.63;;;8.45;;
42246;SDS011;27913;42.722;23.268;2022-12-29T05:08:03;17.48;;;8.23;;
42246;SDS011;27913;42.722;23.268;2022-12-29T05:10:28;18.85;;;9.32;;
42246;SDS011;27913;42.722;23.268;2022-12-29T05:12:54;17.33;;;8.73;;
42246;SDS011;27913;42.722;23.268;2022-12-29T05:15:34;19.30;;;8.63;;
42246;SDS011;27913;42.722;23.268;2022-12-29T05:18:00;23.25;;;8.35;;
42246;SDS011;27913;42.722;23.268;2022-12-29T05:20:25;16.85;;;8.75;;
42246;SDS011;27913;42.722;23.268;2022-12-29T05:22:51;18.42;;;8.93;;
42246;SDS011;27913;42.722;23.268;2022-12-29T05:25:16;20.02;;;9.00;;
42246;SDS011;27913;42.722;23.268;2022-12-29T05:27:42;19.52;;;9.00;;
42246;SDS011;27913;42.722;23.268;2022-12-29T05:30:07;16.20;;;8.25;;
42246;SDS011;27913;42.722;23.268;2022-12-29T05:32:34;17.80;;;8.90;;
42246;SDS011;27913;42.722;23.268;2022-12-29T05:34:59;24.50;;;10.52;;
42246;SDS011;27913;42.722;23.268;2022-12-29T05:37:25;22.10;;;10.05;;
42246;SDS011;27913;42.722;23.268;2022-12-29T05:39:50;24.42;;;10.07;;
42246;SDS011;27913;42.722;23.268;2022-12-29T05:42:16;22.88;;;8.90;;
42246;SDS011;27913;42.722;23.268;2022-12-29T05:44:41;17.10;;;8.45;;
42246;SDS011;27913;42.722;23.268;2022-12-29T05:47:09;21.17;;;10.02;;
42246;SDS011;27913;42.722;23.268;2022-12-29T05:49:35;31.55;;;13.98;;
42246;SDS011;27913;42.722;23.268;2022-12-29T05:52:00;25.08;;;12.18;;
42246;SDS011;27913;42.722;23.268;2022-12-29T05:54:26;19.90;;;9.95;;
42246;SDS011;27913;42.722;23.268;2022-12-29T05:56:51;22.52;;;11.45;;
42246;SDS011;27913;42.722;23.268;2022-12-29T05:59:17;30.48;;;12.25;;
42246;SDS011;27913;42.722;23.268;2022-12-29T06:01:42;44.38;;;20.83;;
42246;SDS011;27913;42.722;23.268;2022-12-29T06:04:08;24.27;;;12.15;;
42246;SDS011;27913;42.722;23.268;2022-12-29T06:06:33;28.13;;;12.13;;
42246;SDS011;27913;42.722;23.268;2022-12-29T06:08:59;29.98;;;13.95;;
42246;SDS011;27913;42.722;23.268;2022-12-29T06:11:24;93.18;;;35.60;;
42246;SDS011;27913;42.722;23.268;2022-12-29T06:13:50;69.45;;;26.83;;
42246;SDS011;27913;42.722;23.268;2022-12-29T06:16:16;51.33;;;20.23;;
42246;SDS011;27913;42.722;23.268;2022-12-29T06:18:41;43.40;;;17.70;;
42246;SDS011;27913;42.722;23.268;2022-12-29T06:21:07;35.10;;;16.75;;
42246;SDS011;27913;42.722;23.268;2022-12-29T06:23:33;34.08;;;16.17;;
42246;SDS011;27913;42.722;23.268;2022-12-29T06:25:58;37.13;;;16.27;;
42246;SDS011;27913;42.722;23.268;2022-12-29T06:28:27;30.67;;;14.60;;
42246;SDS011;27913;42.722;23.268;2022-12-29T06:30:52;36.10;;;15.52;;
42246;SDS011;27913;42.722;23.268;2022-12-29T06:33:18;30.33;;;14.95;;
42246;SDS011;27913;42.722;23.268;2022-12-29T06:35:45;32.05;;;15.45;;
42246;SDS011;27913;42.722;23.268;2022-12-29T06:38:11;35.70;;;16.42;;
42246;SDS011;27913;42.722;23.268;2022-12-29T06:40:37;38.03;;;18.35;;
42246;SDS011;27913;42.722;23.268;2022-12-29T06:43:02;47.50;;;20.88;;
42246;SDS011;27913;42.722;23.268;2022-12-29T06:45:28;30.65;;;14.35;;
42246;SDS011;27913;42.722;23.268;2022-12-29T06:47:54;29.95;;;13.65;;
42246;SDS011;27913;42.722;23.268;2022-12-29T06:50:19;27.88;;;12.30;;
42246;SDS011;27913;42.722;23.268;2022-12-29T06:52:45;31.92;;;14.93;;
42246;SDS011;27913;42.722;23.268;2022-12-29T06:55:10;31.13;;;15.02;;
42246;SDS011;27913;42.722;23.268;2022-12-29T06:57:36;45.65;;;17.45;;
42246;SDS011;27913;42.722;23.268;2022-12-29T07:00:02;39.08;;;17.27;;
42246;SDS011;27913;42.722;23.268;2022-12-29T07:02:29;36.47;;;18.13;;
42246;SDS011;27913;42.722;23.268;2022-12-29T07:04:55;31.65;;;16.20;;
42246;SDS011;27913;42.722;23.268;2022-12-29T07:07:20;34.72;;;16.02;;
42246;SDS011;27913;42.722;23.268;2022-12-29T07:09:46;31.80;;;14.55;;
42246;SDS011;27913;42.722;23.268;2022-12-29T07:12:11;31.65;;;16.02;;
42246;SDS011;27913;42.722;23.268;2022-12-29T07:14:37;33.30;;;16.33;;
42246;SDS011;27913;42.722;23.268;2022-12-29T07:17:03;37.88;;;15.98;;
42246;SDS011;27913;42.722;23.268;2022-12-29T07:19:31;30.30;;;14.60;;
42246;SDS011;27913;42.722;23.268;2022-12-29T07:21:57;36.30;;;16.10;;
42246;SDS011;27913;42.722;23.268;2022-12-29T07:24:23;31.63;;;14.38;;
42246;SDS011;27913;42.722;23.268;2022-12-29T07:26:50;28.15;;;13.38;;
42246;SDS011;27913;42.722;23.268;2022-12-29T07:29:16;38.22;;;15.50;;
42246;SDS011;27913;42.722;23.268;2022-12-29T07:31:42;31.05;;;13.60;;
42246;SDS011;27913;42.722;23.268;2022-12-29T07:34:08;25.75;;;12.68;;
42246;SDS011;27913;42.722;23.268;2022-12-29T07:36:34;29.23;;;13.50;;
42246;SDS011;27913;42.722;23.268;2022-12-29T07:38:59;27.73;;;12.45;;
42246;SDS011;27913;42.722;23.268;2022-12-29T07:41:25;25.65;;;12.60;;
42246;SDS011;27913;42.722;23.268;2022-12-29T07:43:50;19.65;;;8.88;;
42246;SDS011;27913;42.722;23.268;2022-12-29T07:46:16;21.27;;;10.27;;
42246;SDS011;27913;42.722;23.268;2022-12-29T07:48:41;24.13;;;11.57;;
42246;SDS011;27913;42.722;23.268;2022-12-29T07:51:09;20.95;;;10.48;;
42246;SDS011;27913;42.722;23.268;2022-12-29T07:53:35;21.90;;;10.13;;
42246;SDS011;27913;42.722;23.268;2022-12-29T07:56:00;20.90;;;10.93;;
42246;SDS011;27913;42.722;23.268;2022-12-29T07:58:26;24.55;;;11.20;;
42246;SDS011;27913;42.722;23.268;2022-12-29T08:00:55;26.55;;;12.48;;
42246;SDS011;27913;42.722;23.268;2022-12-29T08:03:21;20.35;;;9.60;;
42246;SDS011;27913;42.722;23.268;2022-12-29T08:05:46;23.90;;;10.10;;
42246;SDS011;27913;42.722;23.268;2022-12-29T08:08:12;22.23;;;10.27;;
42246;SDS011;27913;42.722;23.268;2022-12-29T08:10:37;21.05;;;10.23;;
42246;SDS011;27913;42.722;23.268;2022-12-29T08:13:03;24.40;;;11.88;;
42246;SDS011;27913;42.722;23.268;2022-12-29T08:15:28;23.20;;;9.48;;
42246;SDS011;27913;42.722;23.268;2022-12-29T08:17:54;17.75;;;9.68;;
42246;SDS011;27913;42.722;23.268;2022-12-29T08:20:21;37.25;;;17.13;;
42246;SDS011;27913;42.722;23.268;2022-12-29T08:22:46;29.38;;;12.68;;
42246;SDS011;27913;42.722;23.268;2022-12-29T08:25:22;20.13;;;10.65;;
42246;SDS011;27913;42.722;23.268;2022-12-29T08:27:48;21.17;;;10.43;;
42246;SDS011;27913;42.722;23.268;2022-12-29T08:30:14;26.73;;;11.73;;
42246;SDS011;27913;42.722;23.268;2022-12-29T08:32:39;26.50;;;11.02;;
42246;SDS011;27913;42.722;23.268;2022-12-29T08:35:05;25.80;;;12.55;;
42246;SDS011;27913;42.722;23.268;2022-12-29T08:37:32;24.20;;;11.23;;
42246;SDS011;27913;42.722;23.268;2022-12-29T08:39:58;28.73;;;13.23;;
42246;SDS011;27913;42.722;23.268;2022-12-29T08:42:25;25.05;;;12.27;;
42246;SDS011;27913;42.722;23.268;2022-12-29T08:44:59;23.35;;;11.93;;
42246;SDS011;27913;42.722;23.268;2022-12-29T08:47:25;25.08;;;10.80;;
42246;SDS011;27913;42.722;23.268;2022-12-29T08:49:50;31.65;;;12.60;;
42246;SDS011;27913;42.722;23.268;2022-12-29T08:52:16;23.45;;;10.80;;
42246;SDS011;27913;42.722;23.268;2022-12-29T08:54:41;28.60;;;12.32;;
42246;SDS011;27913;42.722;23.268;2022-12-29T08:57:07;26.30;;;11.98;;
42246;SDS011;27913;42.722;23.268;2022-12-29T08:59:32;28.42;;;11.07;;
42246;SDS011;27913;42.722;23.268;2022-12-29T09:01:58;21.08;;;10.82;;
42246;SDS011;27913;42.722;23.268;2022-12-29T09:04:23;29.25;;;11.98;;
42246;SDS011;27913;42.722;23.268;2022-12-29T09:06:49;35.28;;;15.43;;
42246;SDS011;27913;42.722;23.268;2022-12-29T09:09:15;29.30;;;12.70;;
42246;SDS011;27913;42.722;23.268;2022-12-29T09:11:42;30.50;;;13.00;;
42246;SDS011;27913;42.722;23.268;2022-12-29T09:14:08;27.60;;;10.02;;
42246;SDS011;27913;42.722;23.268;2022-12-29T09:16:33;26.85;;;12.60;;
42246;SDS011;27913;42.722;23.268;2022-12-29T09:19:01;21.23;;;10.75;;
42246;SDS011;27913;42.722;23.268;2022-12-29T09:21:28;19.95;;;9.13;;
42246;SDS011;27913;42.722;23.268;2022-12-29T09:23:53;22.48;;;10.48;;
42246;SDS011;27913;42.722;23.268;2022-12-29T09:26:19;22.85;;;10.60;;
42246;SDS011;27913;42.722;23.268;2022-12-29T09:28:45;23.55;;;11.68;;
42246;SDS011;27913;42.722;23.268;2022-12-29T09:31:11;20.52;;;10.05;;
42246;SDS011;27913;42.722;23.268;2022-12-29T09:33:37;23.88;;;10.35;;
42246;SDS011;27913;42.722;23.268;2022-12-29T09:36:03;25.35;;;11.10;;
42246;SDS011;27913;42.722;23.268;2022-12-29T09:38:28;27.83;;;11.43;;
42246;SDS011;27913;42.722;23.268;2022-12-29T09:41:00;26.13;;;11.18;;
42246;SDS011;27913;42.722;23.268;2022-12-29T09:46:27;27.63;;;11.02;;
42246;SDS011;27913;42.722;23.268;2022-12-29T09:51:23;23.85;;;11.55;;
42246;SDS011;27913;42.722;23.268;2022-12-29T09:53:52;22.95;;;11.00;;
42246;SDS011;27913;42.722;23.268;2022-12-29T09:56:24;24.55;;;10.52;;
42246;SDS011;27913;42.722;23.268;2022-12-29T09:58:53;21.98;;;9.98;;
42246;SDS011;27913;42.722;23.268;2022-12-29T10:01:33;24.98;;;9.38;;
42246;SDS011;27913;42.722;23.268;2022-12-29T10:04:03;24.15;;;10.38;;
42246;SDS011;27913;42.722;23.268;2022-12-29T10:23:27;21.52;;;9.80;;
42246;SDS011;27913;42.722;23.268;2022-12-29T10:25:55;23.33;;;11.07;;
42246;SDS011;27913;42.722;23.268;2022-12-29T10:28:36;24.08;;;10.95;;
42246;SDS011;27913;42.722;23.268;2022-12-29T10:31:19;22.38;;;10.80;;
42246;SDS011;27913;42.722;23.268;2022-12-29T10:33:59;21.77;;;10.55;;
42246;SDS011;27913;42.722;23.268;2022-12-29T10:36:32;23.67;;;10.65;;
42246;SDS011;27913;42.722;23.268;2022-12-29T10:45:13;27.17;;;10.88;;
42246;SDS011;27913;42.722;23.268;2022-12-29T10:47:47;24.85;;;10.73;;
42246;SDS011;27913;42.722;23.268;2022-12-29T10:50:18;23.60;;;10.25;;
42246;SDS011;27913;42.722;23.268;2022-12-29T10:52:44;22.02;;;10.80;;
42246;SDS011;27913;42.722;23.268;2022-12-29T10:55:12;34.78;;;12.15;;
42246;SDS011;27913;42.722;23.268;2022-12-29T10:57:44;24.98;;;11.10;;
42246;SDS011;27913;42.722;23.268;2022-12-29T11:05:58;20.75;;;10.00;;
42246;SDS011;27913;42.722;23.268;2022-12-29T11:08:33;21.83;;;10.23;;
42246;SDS011;27913;42.722;23.268;2022-12-29T11:11:07;22.52;;;9.73;;
42246;SDS011;27913;42.722;23.268;2022-12-29T11:13:48;24.58;;;10.68;;
42246;SDS011;27913;42.722;23.268;2022-12-29T11:16:29;23.83;;;10.05;;
42246;SDS011;27913;42.722;23.268;2022-12-29T11:18:56;23.13;;;9.85;;
42246;SDS011;27913;42.722;23.268;2022-12-29T11:26:48;21.15;;;9.88;;
42246;SDS011;27913;42.722;23.268;2022-12-29T11:29:28;28.13;;;11.18;;
42246;SDS011;27913;42.722;23.268;2022-12-29T11:32:10;21.88;;;10.30;;
42246;SDS011;27913;42.722;23.268;2022-12-29T11:34:52;20.25;;;10.27;;
42246;SDS011;27913;42.722;23.268;2022-12-29T11:37:25;27.98;;;10.57;;
42246;SDS011;27913;42.722;23.268;2022-12-29T11:40:20;31.63;;;11.35;;
42246;SDS011;27913;42.722;23.268;2022-12-29T11:42:57;13.07;;;5.72;;
42246;SDS011;27913;42.722;23.268;2022-12-29T11:45:34;22.70;;;8.23;;
42246;SDS011;27913;42.722;23.268;2022-12-29T11:51:21;22.58;;;9.75;;
42246;SDS011;27913;42.722;23.268;2022-12-29T11:54:01;23.42;;;9.55;;
42246;SDS011;27913;42.722;23.268;2022-12-29T11:56:42;27.63;;;10.77;;
42246;SDS011;27913;42.722;23.268;2022-12-29T12:01:50;21.70;;;9.48;;
42246;SDS011;27913;42.722;23.268;2022-12-29T12:04:16;27.98;;;11.50;;
42246;SDS011;27913;42.722;23.268;2022-12-29T12:06:46;21.85;;;9.25;;
42246;SDS011;27913;42.722;23.268;2022-12-29T12:09:29;22.05;;;9.77;;
42246;SDS011;27913;42.722;23.268;2022-12-29T12:12:00;25.52;;;10.00;;
42246;SDS011;27913;42.722;23.268;2022-12-29T12:14:32;20.70;;;9.20;;
42246;SDS011;27913;42.722;23.268;2022-12-29T12:17:11;26.05;;;11.52;;
42246;SDS011;27913;42.722;23.268;2022-12-29T12:20:04;24.08;;;10.68;;
42246;SDS011;27913;42.722;23.268;2022-12-29T12:25:25;21.42;;;9.20;;
42246;SDS011;27913;42.722;23.268;2022-12-29T12:28:11;23.58;;;10.35;;
42246;SDS011;27913;42.722;23.268;2022-12-29T12:30:47;22.58;;;9.68;;
42246;SDS011;27913;42.722;23.268;2022-12-29T12:33:24;28.13;;;10.35;;
42246;SDS011;27913;42.722;23.268;2022-12-29T12:39:34;30.13;;;12.30;;
42246;SDS011;27913;42.722;23.268;2022-12-29T13:01:06;21.13;;;9.32;;
42246;SDS011;27913;42.722;23.268;2022-12-29T13:03:54;23.85;;;9.10;;
42246;SDS011;27913;42.722;23.268;2022-12-29T13:09:57;21.27;;;9.73;;
42246;SDS011;27913;42.722;23.268;2022-12-29T13:12:52;22.42;;;9.70;;
42246;SDS011;27913;42.722;23.268;2022-12-29T13:15:34;29.42;;;13.00;;
42246;SDS011;27913;42.722;23.268;2022-12-29T13:18:19;24.60;;;11.00;;
42246;SDS011;27913;42.722;23.268;2022-12-29T13:20:54;22.60;;;10.13;;
42246;SDS011;27913;42.722;23.268;2022-12-29T13:26:37;40.33;;;15.77;;
42246;SDS011;27913;42.722;23.268;2022-12-29T13:32:18;30.55;;;11.07;;
42246;SDS011;27913;42.722;23.268;2022-12-29T13:35:03;23.23;;;10.90;;
42246;SDS011;27913;42.722;23.268;2022-12-29T13:37:33;27.17;;;12.20;;
42246;SDS011;27913;42.722;23.268;2022-12-29T13:40:10;28.52;;;12.32;;
42246;SDS011;27913;42.722;23.268;2022-12-29T13:42:41;25.48;;;12.23;;
42246;SDS011;27913;42.722;23.268;2022-12-29T13:45:13;25.60;;;12.35;;
42246;SDS011;27913;42.722;23.268;2022-12-29T13:50:33;26.42;;;10.48;;
42246;SDS011;27913;42.722;23.268;2022-12-29T13:55:49;24.95;;;10.82;;
42246;SDS011;27913;42.722;23.268;2022-12-29T13:58:29;20.20;;;10.32;;
42246;SDS011;27913;42.722;23.268;2022-12-29T14:01:07;25.27;;;11.80;;
42246;SDS011;27913;42.722;23.268;2022-12-29T14:03:52;23.75;;;10.80;;
42246;SDS011;27913;42.722;23.268;2022-12-29T14:06:21;27.75;;;10.18;;
42246;SDS011;27913;42.722;23.268;2022-12-29T14:08:54;21.30;;;10.15;;
42246;SDS011;27913;42.722;23.268;2022-12-29T14:11:36;38.90;;;13.30;;
42246;SDS011;27913;42.722;23.268;2022-12-29T14:14:22;23.60;;;10.57;;
42246;SDS011;27913;42.722;23.268;2022-12-29T14:16:50;30.13;;;12.35;;
42246;SDS011;27913;42.722;23.268;2022-12-29T14:19:26;33.78;;;14.43;;
42246;SDS011;27913;42.722;23.268;2022-12-29T14:21:57;23.60;;;11.15;;
42246;SDS011;27913;42.722;23.268;2022-12-29T14:26:59;28.13;;;10.73;;
42246;SDS011;27913;42.722;23.268;2022-12-29T14:29:47;27.27;;;11.48;;
42246;SDS011;27913;42.722;23.268;2022-12-29T14:37:46;20.52;;;10.20;;
42246;SDS011;27913;42.722;23.268;2022-12-29T14:40:30;25.70;;;10.88;;
42246;SDS011;27913;42.722;23.268;2022-12-29T14:42:56;28.95;;;11.73;;
42246;SDS011;27913;42.722;23.268;2022-12-29T14:45:57;26.33;;;11.32;;
42246;SDS011;27913;42.722;23.268;2022-12-29T14:48:45;21.70;;;10.40;;
42246;SDS011;27913;42.722;23.268;2022-12-29T14:53:56;23.23;;;10.48;;
42246;SDS011;27913;42.722;23.268;2022-12-29T14:56:27;27.58;;;10.35;;
42246;SDS011;27913;42.722;23.268;2022-12-29T14:59:14;25.38;;;10.27;;
42246;SDS011;27913;42.722;23.268;2022-12-29T15:01:51;23.05;;;12.10;;
42246;SDS011;27913;42.722;23.268;2022-12-29T15:04:34;23.33;;;12.55;;
42246;SDS011;27913;42.722;23.268;2022-12-29T15:09:41;27.42;;;10.73;;
42246;SDS011;27913;42.722;23.268;2022-12-29T15:12:20;28.38;;;12.73;;
42246;SDS011;27913;42.722;23.268;2022-12-29T15:14:55;21.42;;;10.07;;
42246;SDS011;27913;42.722;23.268;2022-12-29T15:17:35;25.88;;;10.05;;
42246;SDS011;27913;42.722;23.268;2022-12-29T15:20:29;24.92;;;10.65;;
42246;SDS011;27913;42.722;23.268;2022-12-29T15:23:08;24.25;;;11.52;;
42246;SDS011;27913;42.722;23.268;2022-12-29T15:28:20;24.98;;;11.38;;
42246;SDS011;27913;42.722;23.268;2022-12-29T15:31:01;28.58;;;11.38;;
42246;SDS011;27913;42.722;23.268;2022-12-29T15:33:29;30.42;;;12.20;;
42246;SDS011;27913;42.722;23.268;2022-12-29T15:35:55;24.92;;;12.50;;
42246;SDS011;27913;42.722;23.268;2022-12-29T15:38:24;23.15;;;11.65;;
42246;SDS011;27913;42.722;23.268;2022-12-29T15:40:53;31.90;;;13.70;;
42246;SDS011;27913;42.722;23.268;2022-12-29T15:46:08;34.97;;;12.82;;
42246;SDS011;27913;42.722;23.268;2022-12-29T15:48:36;30.33;;;13.45;;
42246;SDS011;27913;42.722;23.268;2022-12-29T15:51:03;29.60;;;14.52;;
42246;SDS011;27913;42.722;23.268;2022-12-29T15:53:55;29.35;;;13.88;;
42246;SDS011;27913;42.722;23.268;2022-12-29T15:56:21;37.97;;;15.10;;
42246;SDS011;27913;42.722;23.268;2022-12-29T15:58:50;28.73;;;13.23;;
42246;SDS011;27913;42.722;23.268;2022-12-29T16:01:19;37.58;;;13.95;;
42246;SDS011;27913;42.722;23.268;2022-12-29T16:03:57;32.95;;;15.00;;
42246;SDS011;27913;42.722;23.268;2022-12-29T16:06:29;35.40;;;16.55;;
42246;SDS011;27913;42.722;23.268;2022-12-29T16:08:58;51.08;;;23.10;;
42246;SDS011;27913;42.722;23.268;2022-12-29T16:13:54;67.22;;;30.85;;
42246;SDS011;27913;42.722;23.268;2022-12-29T16:16:31;67.07;;;27.67;;
42246;SDS011;27913;42.722;23.268;2022-12-29T16:19:01;60.92;;;26.20;;
42246;SDS011;27913;42.722;23.268;2022-12-29T16:21:49;76.80;;;31.02;;
42246;SDS011;27913;42.722;23.268;2022-12-29T16:24:18;70.97;;;31.27;;
42246;SDS011;27913;42.722;23.268;2022-12-29T16:26:49;72.63;;;30.90;;
42246;SDS011;27913;42.722;23.268;2022-12-29T16:29:22;68.63;;;30.90;;
42246;SDS011;27913;42.722;23.268;2022-12-29T16:34:24;114.88;;;46.40;;
42246;SDS011;27913;42.722;23.268;2022-12-29T16:36:54;98.15;;;38.53;;
42246;SDS011;27913;42.722;23.268;2022-12-29T16:41:56;90.28;;;39.13;;
42246;SDS011;27913;42.722;23.268;2022-12-29T16:44:29;124.70;;;52.95;;
42246;SDS011;27913;42.722;23.268;2022-12-29T16:49:37;142.23;;;62.58;;
42246;SDS011;27913;42.722;23.268;2022-12-29T16:52:12;146.57;;;61.78;;
42246;SDS011;27913;42.722;23.268;2022-12-29T16:54:43;220.32;;;80.35;;
42246;SDS011;27913;42.722;23.268;2022-12-29T16:57:25;189.40;;;78.93;;
42246;SDS011;27913;42.722;23.268;2022-12-29T16:59:56;166.32;;;72.07;;
42246;SDS011;27913;42.722;23.268;2022-12-29T17:02:25;136.68;;;57.78;;
42246;SDS011;27913;42.722;23.268;2022-12-29T17:04:54;136.45;;;58.33;;
42246;SDS011;27913;42.722;23.268;2022-12-29T17:07:21;142.30;;;62.58;;
42246;SDS011;27913;42.722;23.268;2022-12-29T17:09:48;87.55;;;38.08;;